Time;durP1;ratioP1;P1;durP2;ratioP2;P2;SDS_P1;SDS_P2;PMS_P1;PMS_P2;Temp;Humidity;BMP_temperature;BMP_pressure;BME280_temperature;BME280_humidity;BME280_pressure;Samples;Min_cycle;Max_cycle;Signal;HPM_P1;HPM_P2
2023/02/26 00:00:55;;;;;;;3.08;1.90;;;;;;;-2.14;100.00;94609.50;5008975;28;20033;-73
2023/02/26 00:03:34;;;;;;;3.03;2.05;;;;;;;-2.10;100.00;94614.03;5002549;28;20501;-72
2023/02/26 00:06:00;;;;;;;4.38;2.10;;;;;;;-2.00;100.00;94616.13;5007395;28;20119;-73
2023/02/26 00:08:25;;;;;;;6.75;2.40;;;;;;;-2.25;100.00;94602.47;5009858;28;20421;-73
2023/02/26 00:10:53;;;;;;;2.72;1.77;;;;;;;-2.03;100.00;94610.59;5009611;28;20042;-75
2023/02/26 00:13:20;;;;;;;5.25;2.85;;;;;;;-2.14;100.00;94610.31;5003743;28;20431;-74
2023/02/26 00:15:47;;;;;;;4.10;2.30;;;;;;;-2.04;100.00;94627.88;5009615;28;20045;-74
2023/02/26 00:18:14;;;;;;;3.85;2.35;;;;;;;-1.89;100.00;94626.75;5007284;28;20492;-74
2023/02/26 00:20:42;;;;;;;4.47;2.55;;;;;;;-1.95;100.00;94618.84;5004791;28;20037;-74
2023/02/26 00:23:15;;;;;;;6.43;2.55;;;;;;;-1.93;100.00;94627.16;5008581;28;20500;-74
2023/02/26 00:25:40;;;;;;;4.05;2.53;;;;;;;-2.13;100.00;94626.56;5007040;28;20497;-74
2023/02/26 00:28:07;;;;;;;4.22;2.65;;;;;;;-1.99;100.00;94630.59;5009417;28;20037;-74
2023/02/26 00:30:33;;;;;;;3.38;2.17;;;;;;;-1.98;100.00;94628.81;5006634;28;20037;-73
2023/02/26 00:32:59;;;;;;;3.63;2.45;;;;;;;-1.88;100.00;94628.31;5003299;28;20505;-73
2023/02/26 00:35:25;;;;;;;4.65;2.22;;;;;;;-1.95;100.00;94633.56;5007089;28;20086;-73
2023/02/26 00:38:02;;;;;;;4.00;2.47;;;;;;;-1.92;100.00;94628.75;5002813;28;20117;-73
2023/02/26 00:40:38;;;;;;;4.90;2.58;;;;;;;-2.02;100.00;94633.59;4999403;28;20046;-73
2023/02/26 00:43:07;;;;;;;5.47;2.70;;;;;;;-2.06;100.00;94632.44;5007380;28;20049;-73
2023/02/26 00:45:34;;;;;;;4.35;2.65;;;;;;;-2.09;100.00;94628.50;5003325;28;20046;-74
2023/02/26 00:48:00;;;;;;;6.00;2.65;;;;;;;-2.04;100.00;94635.63;5008957;28;20037;-74
2023/02/26 00:50:26;;;;;;;6.18;2.63;;;;;;;-2.07;100.00;94635.22;5008072;28;20034;-74
2023/02/26 00:53:21;;;;;;;4.97;3.05;;;;;;;-2.06;100.00;94641.97;5008780;28;20049;-74
2023/02/26 00:55:46;;;;;;;4.95;2.70;;;;;;;-2.08;100.00;94644.75;5000653;28;20475;-73
2023/02/26 00:58:12;;;;;;;5.55;2.58;;;;;;;-2.08;100.00;94644.75;5005521;28;20043;-74
2023/02/26 01:00:38;;;;;;;6.65;2.42;;;;;;;-2.13;100.00;94631.72;5008272;28;20041;-74
2023/02/26 01:03:04;;;;;;;4.53;2.83;;;;;;;-2.00;100.00;94641.91;5000278;28;20052;-74
2023/02/26 01:05:29;;;;;;;6.38;2.90;;;;;;;-1.97;100.00;94641.50;5007484;28;20042;-74
2023/02/26 01:08:32;;;;;;;4.65;2.67;;;;;;;-1.85;100.00;94643.34;5006292;28;20038;-74
2023/02/26 01:10:58;;;;;;;3.70;2.35;;;;;;;-1.92;100.00;94641.63;5003172;28;20038;-74
2023/02/26 01:13:24;;;;;;;4.45;2.80;;;;;;;-1.80;100.00;94638.38;5002909;28;20588;-74
2023/02/26 01:15:56;;;;;;;4.00;2.35;;;;;;;-1.99;100.00;94640.91;5006047;28;20038;-74
2023/02/26 01:18:32;;;;;;;4.80;2.75;;;;;;;-2.06;100.00;94632.44;5007694;28;20053;-74
2023/02/26 01:21:03;;;;;;;4.88;2.72;;;;;;;-2.01;100.00;94635.19;5004407;28;20038;-74
2023/02/26 01:23:37;;;;;;;3.70;2.53;;;;;;;-1.88;100.00;94638.63;5006241;28;20425;-74
2023/02/26 01:26:14;;;;;;;4.15;2.30;;;;;;;-1.94;100.00;94640.25;5006908;28;20042;-74
2023/02/26 01:28:40;;;;;;;4.03;2.40;;;;;;;-2.01;100.00;94635.19;5009327;28;20034;-74
2023/02/26 01:31:17;;;;;;;5.70;2.90;;;;;;;-2.04;100.00;94635.63;5007409;28;20096;-74
2023/02/26 01:33:57;;;;;;;4.75;2.17;;;;;;;-1.97;100.00;94646.66;5002742;28;20045;-74
2023/02/26 01:36:30;;;;;;;3.95;2.30;;;;;;;-2.28;100.00;94645.69;5005218;28;20401;-74
2023/02/26 01:39:03;;;;;;;5.03;2.40;;;;;;;-2.31;100.00;94653.84;5008090;28;20046;-74
2023/02/26 01:41:42;;;;;;;4.57;2.30;;;;;;;-2.25;100.00;94654.03;5002727;28;20042;-74
2023/02/26 01:44:13;;;;;;;2.58;1.98;;;;;;;-2.38;100.00;94666.00;5010019;28;20057;-74
2023/02/26 01:47:09;;;;;;;3.40;2.38;;;;;;;-2.44;100.00;94656.53;5009604;28;20046;-74
2023/02/26 01:49:35;;;;;;;3.17;2.30;;;;;;;-2.42;100.00;94654.53;5012759;28;20578;-75
2023/02/26 01:52:04;;;;;;;4.32;2.30;;;;;;;-2.42;100.00;94649.38;5007065;28;20516;-74
2023/02/26 01:54:33;;;;;;;3.72;2.38;;;;;;;-2.36;100.00;94653.69;5010079;28;20077;-74
2023/02/26 01:57:13;;;;;;;3.83;2.55;;;;;;;-2.28;100.00;94666.31;5007162;28;20042;-75
2023/02/26 01:59:45;;;;;;;4.15;2.25;;;;;;;-2.40;100.00;94657.66;5005327;28;20046;-74
2023/02/26 02:02:13;;;;;;;5.20;2.50;;;;;;;-2.49;100.00;94661.50;5006319;28;20038;-75
2023/02/26 02:04:40;;;;;;;4.53;2.78;;;;;;;-2.49;100.00;94674.41;5007106;28;20553;-74
2023/02/26 02:07:06;;;;;;;6.10;2.95;;;;;;;-2.40;100.00;94662.81;5008709;28;20042;-75
2023/02/26 02:09:32;;;;;;;4.45;2.42;;;;;;;-2.47;100.00;94667.22;5012181;28;20404;-74
2023/02/26 02:12:16;;;;;;;5.22;2.75;;;;;;;-2.53;100.00;94665.50;5009798;28;20042;-74
2023/02/26 02:15:02;;;;;;;3.75;2.28;;;;;;;-2.22;100.00;94671.66;5012122;28;20034;-75
2023/02/26 02:17:47;;;;;;;4.35;2.60;;;;;;;-2.24;100.00;94671.84;5008166;28;20069;-74
2023/02/26 02:20:23;;;;;;;4.75;2.58;;;;;;;-2.38;100.00;94675.53;5008045;28;20054;-73
2023/02/26 02:23:02;;;;;;;6.82;2.47;;;;;;;-2.24;100.00;94677.00;5006595;28;20048;-73
2023/02/26 02:25:56;;;;;;;5.05;2.63;;;;;;;-2.06;100.00;94684.00;5025387;28;20274;-73
2023/02/26 02:28:58;;;;;;;5.55;2.60;;;;;;;-2.48;100.00;94683.72;5011671;28;20058;-75
2023/02/26 02:31:28;;;;;;;4.65;2.40;;;;;;;-2.35;100.00;94681.03;5008652;28;20493;-73
2023/02/26 02:34:09;;;;;;;4.88;2.47;;;;;;;-2.27;100.00;94678.22;5005697;28;20077;-72
2023/02/26 02:36:46;;;;;;;5.18;2.75;;;;;;;-2.39;100.00;94690.19;5010091;28;20034;-73
2023/02/26 02:39:18;;;;;;;4.13;2.05;;;;;;;-2.65;100.00;94681.59;5008790;28;20046;-73
2023/02/26 02:41:50;;;;;;;5.45;2.10;;;;;;;-2.44;100.00;94687.44;5006842;28;20037;-73
2023/02/26 02:44:20;;;;;;;3.90;2.00;;;;;;;-2.40;100.00;94687.81;5011958;28;20038;-74
2023/02/26 02:46:50;;;;;;;3.42;2.05;;;;;;;-2.51;100.00;94691.84;5008939;28;20084;-74
2023/02/26 02:49:22;;;;;;;7.63;1.95;;;;;;;-2.53;100.00;94693.84;5006444;28;20158;-73
2023/02/26 02:51:52;;;;;;;4.20;2.22;;;;;;;-2.37;100.00;94688.19;5007555;28;20103;-74
2023/02/26 02:54:44;;;;;;;3.72;2.10;;;;;;;-2.55;100.00;94690.69;5010987;28;20125;-74
2023/02/26 02:57:20;;;;;;;3.50;1.88;;;;;;;-2.70;100.00;94702.06;5009686;28;20453;-74
2023/02/26 02:59:50;;;;;;;8.68;2.15;;;;;;;-2.68;100.00;94697.47;5005492;28;20620;-74
2023/02/26 03:02:25;;;;;;;4.30;2.30;;;;;;;-2.76;100.00;94697.72;5008762;28;20042;-73
2023/02/26 03:04:51;;;;;;;4.75;1.92;;;;;;;-2.94;100.00;94700.16;5004220;28;20069;-74
2023/02/26 03:07:17;;;;;;;4.25;2.13;;;;;;;-2.78;100.00;94702.28;5010793;28;20034;-74
2023/02/26 03:09:42;;;;;;;4.50;2.17;;;;;;;-2.85;100.00;94706.69;5010034;28;20537;-73
2023/02/26 03:12:08;;;;;;;5.60;1.80;;;;;;;-2.84;100.00;94719.34;5010037;28;20074;-74
2023/02/26 03:14:34;;;;;;;4.25;1.88;;;;;;;-2.80;100.00;94714.59;5005583;28;20534;-74
2023/02/26 03:17:11;;;;;;;3.47;2.05;;;;;;;-2.79;100.00;94711.00;5008140;28;20030;-73
2023/02/26 03:20:06;;;;;;;3.60;2.00;;;;;;;-2.88;100.00;94714.81;5004105;28;20042;-73
2023/02/26 03:22:50;;;;;;;6.32;2.38;;;;;;;-2.99;100.00;94721.38;5002952;28;20088;-73
2023/02/26 03:25:24;;;;;;;5.82;2.65;;;;;;;-2.81;100.00;94713.00;5009186;28;20034;-74
2023/02/26 03:28:11;;;;;;;7.25;2.22;;;;;;;-2.94;100.00;94719.00;5011483;28;20033;-73
2023/02/26 03:30:45;;;;;;;4.88;2.70;;;;;;;-2.91;100.00;94722.97;5007205;28;20092;-73
2023/02/26 03:33:26;;;;;;;7.75;2.30;;;;;;;-2.80;100.00;94724.91;5005678;28;20050;-73
2023/02/26 03:36:11;;;;;;;6.55;2.45;;;;;;;-2.74;100.00;94734.38;5009199;28;20113;-74
2023/02/26 03:38:47;;;;;;;6.28;2.55;;;;;;;-2.82;100.00;94737.16;5003708;28;20053;-74
2023/02/26 03:41:29;;;;;;;5.57;2.50;;;;;;;-2.86;100.00;94736.00;5007146;28;20073;-74
2023/02/26 03:44:05;;;;;;;7.03;2.75;;;;;;;-2.83;100.00;94745.88;5009258;28;20672;-74
2023/02/26 03:46:38;;;;;;;7.70;2.72;;;;;;;-2.87;100.00;94742.16;5009372;28;20144;-74
2023/02/26 03:49:11;;;;;;;4.85;2.28;;;;;;;-3.10;100.00;94755.47;5009102;28;20571;-74
2023/02/26 03:51:39;;;;;;;6.00;2.30;;;;;;;-3.15;100.00;94749.16;5004901;28;20114;-74
2023/02/26 03:54:14;;;;;;;7.82;2.33;;;;;;;-2.84;100.00;94759.78;5008009;28;20501;-74
2023/02/26 03:56:44;;;;;;;4.93;2.42;;;;;;;-3.17;100.00;94761.44;5002948;28;20085;-74
2023/02/26 03:59:11;;;;;;;7.60;2.30;;;;;;;-3.26;100.00;94756.69;5009812;28;20501;-73
2023/02/26 04:01:44;;;;;;;8.63;2.08;;;;;;;-3.22;100.00;94763.03;5007461;28;20084;-74
2023/02/26 04:04:20;;;;;;;8.40;2.42;;;;;;;-3.28;100.00;94769.00;5002998;28;20058;-73
2023/02/26 04:06:46;;;;;;;5.25;2.50;;;;;;;-3.13;100.00;94765.19;5009209;28;20498;-74
2023/02/26 04:09:12;;;;;;;4.20;2.40;;;;;;;-3.10;100.00;94766.56;5008748;28;20506;-74
2023/02/26 04:11:38;;;;;;;4.47;2.38;;;;;;;-3.04;100.00;94768.34;5006208;28;20072;-74
2023/02/26 04:14:04;;;;;;;4.70;1.90;;;;;;;-2.93;100.00;94766.13;5006708;28;20050;-74
2023/02/26 04:16:30;;;;;;;8.43;2.65;;;;;;;-2.99;100.00;94773.69;5008473;28;20038;-74
2023/02/26 04:18:55;;;;;;;7.45;2.38;;;;;;;-3.33;100.00;94762.66;5008258;28;20053;-74
2023/02/26 04:21:22;;;;;;;8.48;2.75;;;;;;;-3.35;100.00;94769.78;5006879;28;20097;-74
2023/02/26 04:23:48;;;;;;;4.60;2.80;;;;;;;-3.44;100.00;94773.56;5009033;28;20046;-74
2023/02/26 04:26:13;;;;;;;5.10;2.58;;;;;;;-3.22;100.00;94768.19;5007908;28;20052;-74
2023/02/26 04:28:40;;;;;;;5.70;2.75;;;;;;;-3.36;100.00;94773.34;5009191;28;20042;-74
2023/02/26 04:31:05;;;;;;;8.50;3.00;;;;;;;-3.38;100.00;94779.69;5007577;28;20069;-75
2023/02/26 04:33:32;;;;;;;5.78;2.42;;;;;;;-3.31;100.00;94781.25;5006179;28;20045;-74
2023/02/26 04:35:59;;;;;;;7.35;2.53;;;;;;;-3.42;100.00;94788.78;5009043;28;20041;-74
2023/02/26 04:38:24;;;;;;;7.65;2.53;;;;;;;-3.45;100.00;94789.97;5008395;28;20041;-74
2023/02/26 04:40:50;;;;;;;5.60;2.50;;;;;;;-3.38;100.00;94790.75;5007724;28;20034;-74
2023/02/26 04:43:16;;;;;;;5.13;2.35;;;;;;;-3.55;100.00;94789.59;5005657;28;20038;-74
2023/02/26 04:45:47;;;;;;;5.55;2.45;;;;;;;-3.69;100.00;94789.59;5008280;28;20038;-74
2023/02/26 04:48:14;;;;;;;4.88;2.45;;;;;;;-3.81;100.00;94788.59;5007811;28;20533;-74
2023/02/26 04:50:40;;;;;;;5.20;2.28;;;;;;;-3.66;100.00;94793.56;5008390;28;20080;-75
2023/02/26 04:53:05;;;;;;;22.60;3.00;;;;;;;-3.57;100.00;94796.72;5005998;28;20057;-74
2023/02/26 04:55:31;;;;;;;8.73;3.40;;;;;;;-3.61;100.00;94800.69;5007092;28;20049;-74
2023/02/26 04:57:56;;;;;;;5.22;2.58;;;;;;;-3.73;100.00;94797.91;5008917;28;20042;-75
2023/02/26 05:00:22;;;;;;;9.15;2.80;;;;;;;-3.77;100.00;94802.63;5006104;28;20042;-74
2023/02/26 05:02:47;;;;;;;5.47;2.65;;;;;;;-3.79;100.00;94804.63;4998017;28;20045;-75
2023/02/26 05:05:13;;;;;;;9.88;3.10;;;;;;;-3.68;100.00;94806.63;5008121;28;20037;-74
2023/02/26 05:07:38;;;;;;;9.73;2.80;;;;;;;-3.57;100.00;94807.00;5008675;28;20077;-74
2023/02/26 05:10:05;;;;;;;9.65;2.75;;;;;;;-3.84;100.00;94801.84;5007370;28;20429;-75
2023/02/26 05:12:32;;;;;;;7.40;2.90;;;;;;;-3.87;100.00;94808.16;4998325;28;20038;-75
2023/02/26 05:14:58;;;;;;;11.65;2.88;;;;;;;-3.97;100.00;94807.75;5007191;28;20037;-75
2023/02/26 05:17:23;;;;;;;8.00;2.83;;;;;;;-3.95;100.00;94810.13;5008176;28;20516;-75
2023/02/26 05:19:49;;;;;;;5.45;2.90;;;;;;;-4.13;100.00;94808.13;5006782;28;20048;-75
2023/02/26 05:22:14;;;;;;;11.40;3.60;;;;;;;-4.16;100.00;94809.31;5006979;28;20417;-75
2023/02/26 05:24:40;;;;;;;8.32;3.00;;;;;;;-4.17;100.00;94820.56;5008238;28;20045;-75
2023/02/26 05:27:06;;;;;;;8.98;3.50;;;;;;;-4.09;100.00;94819.63;5007426;28;20041;-75
2023/02/26 05:29:31;;;;;;;9.07;3.03;;;;;;;-4.00;100.00;94829.50;5002479;28;20563;-75
2023/02/26 05:31:57;;;;;;;7.78;3.13;;;;;;;-3.96;100.00;94824.00;5007221;28;20149;-75
2023/02/26 05:34:22;;;;;;;8.98;4.00;;;;;;;-4.16;100.00;94832.44;5002650;28;20421;-75
2023/02/26 05:36:48;;;;;;;7.00;2.80;;;;;;;-4.31;100.00;94831.78;5007608;28;20549;-75
2023/02/26 05:39:13;;;;;;;16.75;3.63;;;;;;;-4.26;100.00;94829.44;5007159;28;20046;-75
2023/02/26 05:41:39;;;;;;;13.05;3.25;;;;;;;-4.35;100.00;94837.31;5002035;28;20065;-75
2023/02/26 05:44:06;;;;;;;16.63;3.50;;;;;;;-4.40;100.00;94828.59;5009510;28;20675;-75
2023/02/26 05:46:32;;;;;;;8.55;3.28;;;;;;;-4.39;100.00;94825.84;5005618;28;20505;-75
2023/02/26 05:48:58;;;;;;;8.07;2.83;;;;;;;-4.41;100.00;94832.97;5006292;28;20046;-75
2023/02/26 05:51:24;;;;;;;6.80;2.70;;;;;;;-4.49;100.00;94820.28;5006503;28;20046;-75
2023/02/26 05:53:49;;;;;;;7.03;2.80;;;;;;;-4.39;100.00;94825.84;5009699;28;20050;-75
2023/02/26 05:56:15;;;;;;;10.63;3.33;;;;;;;-4.41;100.00;94821.88;5005431;28;20053;-75
2023/02/26 05:58:40;;;;;;;11.45;2.75;;;;;;;-4.47;100.00;94828.56;5004086;28;20039;-75
2023/02/26 06:01:06;;;;;;;7.05;2.63;;;;;;;-4.51;100.00;94837.66;5001240;28;20073;-75
2023/02/26 06:03:31;;;;;;;13.05;3.47;;;;;;;-4.55;100.00;94841.59;5001034;28;20034;-75
2023/02/26 06:05:57;;;;;;;18.98;3.17;;;;;;;-4.46;100.00;94844.78;5007828;28;20041;-75
2023/02/26 06:08:23;;;;;;;6.45;2.78;;;;;;;-4.59;100.00;94858.38;5007265;28;20045;-75
2023/02/26 06:10:50;;;;;;;8.95;2.75;;;;;;;-4.68;100.00;94872.31;5003642;28;20042;-75
2023/02/26 06:13:16;;;;;;;10.10;3.22;;;;;;;-4.63;100.00;94877.69;5006726;28;20045;-76
2023/02/26 06:15:42;;;;;;;11.10;3.13;;;;;;;-4.48;100.00;94891.22;5007141;28;20041;-75
2023/02/26 06:18:07;;;;;;;12.48;2.80;;;;;;;-4.43;100.00;94896.56;5007091;28;20050;-76
2023/02/26 06:20:34;;;;;;;8.05;3.10;;;;;;;-4.48;100.00;94901.50;5004601;28;20045;-75
2023/02/26 06:22:59;;;;;;;8.98;2.97;;;;;;;-4.50;100.00;94906.00;5001165;28;20038;-76
2023/02/26 06:25:25;;;;;;;10.43;3.05;;;;;;;-4.42;100.00;94923.84;5006028;28;20077;-77
2023/02/26 06:27:50;;;;;;;8.93;3.67;;;;;;;-4.43;100.00;94914.53;5004016;28;20046;-73
2023/02/26 06:30:17;;;;;;;22.60;4.03;;;;;;;-4.42;100.00;94918.69;5008809;28;20041;-77
2023/02/26 06:32:43;;;;;;;5.82;2.92;;;;;;;-4.35;100.00;94918.75;5008937;28;20099;-76
2023/02/26 06:35:09;;;;;;;7.18;3.10;;;;;;;-4.36;100.00;94920.50;5009079;28;20053;-77
2023/02/26 06:37:35;;;;;;;6.47;3.30;;;;;;;-4.20;100.00;94926.31;5005972;28;20041;-76
2023/02/26 06:40:01;;;;;;;8.00;2.95;;;;;;;-4.26;100.00;94921.94;5008869;28;20038;-75
2023/02/26 06:42:26;;;;;;;7.38;3.10;;;;;;;-4.38;100.00;94919.91;5007045;28;20041;-76
2023/02/26 06:44:52;;;;;;;13.15;3.47;;;;;;;-4.34;100.00;94935.72;5004540;28;20117;-76
2023/02/26 06:47:17;;;;;;;7.57;3.65;;;;;;;-4.29;100.00;94927.47;5008460;28;20038;-76
2023/02/26 06:49:43;;;;;;;12.48;3.47;;;;;;;-4.35;100.00;94924.66;5011787;28;20045;-77
2023/02/26 06:52:08;;;;;;;14.23;3.20;;;;;;;-4.40;100.00;94937.28;5008477;28;20525;-76
2023/02/26 06:54:34;;;;;;;6.78;2.90;;;;;;;-4.32;100.00;94940.66;5009574;28;20042;-75
2023/02/26 06:57:01;;;;;;;10.52;3.53;;;;;;;-4.29;100.00;94937.75;5005266;28;20051;-78
2023/02/26 06:59:27;;;;;;;7.53;3.30;;;;;;;-4.24;100.00;94945.66;5010259;28;20045;-76
2023/02/26 07:01:53;;;;;;;10.10;3.50;;;;;;;-4.12;100.00;94954.41;5009364;28;20044;-76
2023/02/26 07:04:18;;;;;;;7.53;3.55;;;;;;;-4.30;100.00;94956.69;5003608;28;20046;-76
2023/02/26 07:06:44;;;;;;;7.45;3.20;;;;;;;-4.21;100.00;94965.81;5007706;28;20034;-76
2023/02/26 07:09:10;;;;;;;8.40;3.40;;;;;;;-4.44;100.00;94966.91;5009327;28;20417;-77
2023/02/26 07:11:35;;;;;;;8.93;2.97;;;;;;;-4.26;100.00;94968.19;5006814;28;20045;-77
2023/02/26 07:14:01;;;;;;;11.07;4.10;;;;;;;-4.14;100.00;94982.06;5009308;28;20046;-78
2023/02/26 07:16:26;;;;;;;7.05;3.53;;;;;;;-4.13;100.00;94983.66;5008460;28;20042;-79
2023/02/26 07:18:52;;;;;;;16.95;3.90;;;;;;;-4.03;100.00;94968.69;5010758;28;20084;-77
2023/02/26 07:21:17;;;;;;;17.05;3.70;;;;;;;-4.13;100.00;94975.97;5009386;28;20798;-77
2023/02/26 07:23:43;;;;;;;14.95;3.55;;;;;;;-4.10;100.00;94985.84;5011379;28;20066;-78
2023/02/26 07:26:08;;;;;;;8.70;3.00;;;;;;;-4.08;100.00;94985.66;5006975;28;20092;-76
2023/02/26 07:28:34;;;;;;;8.35;3.65;;;;;;;-4.05;100.00;94991.22;5009349;28;20033;-77
2023/02/26 07:31:00;;;;;;;8.27;3.17;;;;;;;-3.94;100.00;94989.09;5008381;28;20038;-77
2023/02/26 07:33:27;;;;;;;5.88;3.05;;;;;;;-4.08;100.00;94991.59;5003558;28;20057;-77
2023/02/26 07:35:53;;;;;;;9.48;3.50;;;;;;;-4.02;100.00;94990.06;5010279;28;20041;-77
2023/02/26 07:38:19;;;;;;;5.85;2.97;;;;;;;-3.73;100.00;94994.13;5010825;28;20112;-77
2023/02/26 07:40:44;;;;;;;11.95;3.65;;;;;;;-3.72;100.00;94993.16;5009653;28;20037;-77
2023/02/26 07:43:10;;;;;;;7.03;3.13;;;;;;;-4.01;100.00;94986.47;5025666;28;20410;-79
2023/02/26 07:45:35;;;;;;;7.78;3.40;;;;;;;-3.89;100.00;94989.31;5011870;28;20034;-79
2023/02/26 07:48:01;;;;;;;12.02;3.67;;;;;;;-3.89;100.00;94994.47;5012334;28;20057;-77
2023/02/26 07:50:26;;;;;;;7.03;3.38;;;;;;;-4.00;100.00;94991.44;5012059;28;20468;-78
2023/02/26 07:52:52;;;;;;;10.20;4.03;;;;;;;-3.75;100.00;94996.09;5012741;28;20034;-77
2023/02/26 07:55:19;;;;;;;10.63;3.95;;;;;;;-3.53;100.00;94998.56;5011268;28;20500;-80
2023/02/26 07:57:44;;;;;;;11.20;3.85;;;;;;;-3.73;100.00;95014.69;5011794;28;20038;-77
2023/02/26 08:00:10;;;;;;;10.48;3.80;;;;;;;-3.67;100.00;95013.91;5007310;28;20065;-79
2023/02/26 08:02:36;;;;;;;8.98;3.72;;;;;;;-3.48;100.00;95016.75;5007168;28;20050;-77
2023/02/26 08:05:02;;;;;;;11.45;4.22;;;;;;;-3.77;100.00;95023.78;5012019;28;20188;-77
2023/02/26 08:07:27;;;;;;;18.67;2.92;;;;;;;-3.47;100.00;95028.63;5009361;28;20524;-78
2023/02/26 08:09:53;;;;;;;18.65;4.03;;;;;;;-3.51;100.00;95012.00;5006954;28;20045;-81
2023/02/26 08:12:18;;;;;;;14.93;4.40;;;;;;;-3.66;100.00;95015.50;5009511;28;20037;-78
2023/02/26 08:14:44;;;;;;;7.47;3.50;;;;;;;-3.60;100.00;95028.59;5014112;28;20038;-79
2023/02/26 08:17:10;;;;;;;12.15;3.80;;;;;;;-3.60;100.00;95023.47;5008240;28;20461;-78
2023/02/26 08:19:36;;;;;;;9.27;3.25;;;;;;;-3.62;100.00;95035.69;5010607;28;20037;-78
2023/02/26 08:22:02;;;;;;;10.30;3.97;;;;;;;-3.69;100.00;95041.63;5008156;28;20050;-77
2023/02/26 08:24:27;;;;;;;10.23;4.00;;;;;;;-3.85;100.00;95047.06;5012590;28;20048;-79
2023/02/26 08:26:53;;;;;;;15.90;4.07;;;;;;;-3.75;100.00;95037.25;5011104;28;20042;-79
2023/02/26 08:29:19;;;;;;;7.53;3.33;;;;;;;-3.82;100.00;95046.72;5018850;28;20054;-77
2023/02/26 08:31:45;;;;;;;7.30;3.40;;;;;;;-3.85;100.00;95041.91;5009949;28;20120;-78
2023/02/26 08:34:11;;;;;;;10.00;2.83;;;;;;;-3.88;100.00;95052.59;5005044;28;20038;-76
2023/02/26 08:36:36;;;;;;;6.25;3.20;;;;;;;-3.74;100.00;95049.09;5007121;28;20045;-77
2023/02/26 08:39:02;;;;;;;8.13;3.88;;;;;;;-3.57;100.00;95048.78;5008067;28;20046;-77
2023/02/26 08:41:31;;;;;;;7.47;3.63;;;;;;;-3.52;100.00;95051.56;5000945;28;20100;-77
2023/02/26 08:43:56;;;;;;;12.57;4.88;;;;;;;-3.57;100.00;95059.06;4999066;28;20061;-76
2023/02/26 08:46:22;;;;;;;12.55;3.95;;;;;;;-3.60;100.00;95059.47;5005658;28;20490;-77
2023/02/26 08:48:47;;;;;;;7.60;3.60;;;;;;;-3.52;100.00;95059.28;5010274;28;20030;-78
2023/02/26 08:51:13;;;;;;;10.27;4.07;;;;;;;-3.25;100.00;95067.09;5009272;28;20053;-78
2023/02/26 08:53:39;;;;;;;8.13;3.47;;;;;;;-3.23;100.00;95070.25;5009579;28;20053;-77
2023/02/26 08:56:05;;;;;;;6.97;3.88;;;;;;;-3.25;100.00;95078.19;5006379;28;20521;-77
2023/02/26 08:58:30;;;;;;;8.43;3.67;;;;;;;-3.26;100.00;95073.22;5009774;28;20034;-82
2023/02/26 09:00:56;;;;;;;10.15;3.92;;;;;;;-3.41;100.00;95070.81;5006835;28;20506;-81
2023/02/26 09:03:21;;;;;;;7.20;3.80;;;;;;;-3.70;100.00;95086.31;5008230;28;20041;-81
2023/02/26 09:05:47;;;;;;;13.65;4.43;;;;;;;-3.47;100.00;95090.38;5010117;28;20064;-78
2023/02/26 09:08:14;;;;;;;9.27;4.05;;;;;;;-3.43;100.00;95085.63;5011722;28;20046;-77
2023/02/26 09:10:41;;;;;;;10.95;4.20;;;;;;;-3.46;100.00;95091.97;5007509;28;20529;-80
2023/02/26 09:13:07;;;;;;;10.80;3.80;;;;;;;-3.41;100.00;95094.75;5024780;28;20049;-78
2023/02/26 09:15:33;;;;;;;10.07;4.05;;;;;;;-3.14;100.00;95100.00;5012223;28;20525;-78
2023/02/26 09:17:59;;;;;;;7.90;4.03;;;;;;;-3.25;100.00;95103.13;5011340;28;20042;-80
2023/02/26 09:20:26;;;;;;;8.98;3.90;;;;;;;-3.18;100.00;95103.94;5011158;28;20062;-79
2023/02/26 09:22:51;;;;;;;9.43;3.55;;;;;;;-3.27;100.00;95110.25;5011580;28;20116;-78
2023/02/26 09:25:17;;;;;;;8.95;4.20;;;;;;;-3.26;100.00;95106.69;5009806;28;20041;-78
2023/02/26 09:27:42;;;;;;;8.38;3.97;;;;;;;-3.31;100.00;95120.13;5011072;28;20030;-80
2023/02/26 09:30:09;;;;;;;8.93;3.95;;;;;;;-3.18;100.00;95119.38;5005696;28;20091;-79
2023/02/26 09:32:34;;;;;;;8.15;3.90;;;;;;;-3.28;100.00;95129.25;5008675;28;20030;-78
2023/02/26 09:35:01;;;;;;;8.23;4.07;;;;;;;-3.23;100.00;95127.69;5009265;28;20116;-78
2023/02/26 09:37:27;;;;;;;9.77;3.60;;;;;;;-3.21;100.00;95130.84;5012485;28;20073;-78
2023/02/26 09:39:52;;;;;;;8.45;4.55;;;;;;;-3.03;100.00;95127.75;5012407;28;20030;-78
2023/02/26 09:42:28;;;;;;;7.57;3.88;;;;;;;-2.89;100.00;95122.66;5009146;28;20042;-81
2023/02/26 09:44:58;;;;;;;11.75;3.90;;;;;;;-2.76;100.00;95132.97;5010357;28;20515;-79
2023/02/26 09:47:30;;;;;;;9.07;4.32;;;;;;;-2.83;100.00;95142.47;5013175;28;20046;-81
2023/02/26 09:50:04;;;;;;;8.98;4.53;;;;;;;-2.69;100.00;95123.47;5012611;28;20042;-80
2023/02/26 09:52:43;;;;;;;7.82;4.07;;;;;;;-2.37;100.00;95131.47;5006568;28;20379;-81
2023/02/26 09:55:19;;;;;;;8.57;3.60;;;;;;;-2.68;100.00;95130.22;5012252;28;20054;-82
2023/02/26 09:57:47;;;;;;;10.40;4.03;;;;;;;-2.63;100.00;95133.00;5010779;28;20494;-77
2023/02/26 10:00:23;;;;;;;8.85;4.22;;;;;;;-2.54;100.00;95143.94;5011066;28;20046;-77
2023/02/26 10:03:10;;;;;;;9.27;4.45;;;;;;;-2.85;100.00;95149.59;5009980;28;20084;-78
2023/02/26 10:05:43;;;;;;;7.72;3.90;;;;;;;-2.80;100.00;95147.25;5013923;28;20033;-78
2023/02/26 10:08:17;;;;;;;7.32;4.07;;;;;;;-2.63;100.00;95143.31;5016267;28;20049;-79
2023/02/26 10:11:02;;;;;;;7.10;4.18;;;;;;;-2.47;100.00;95141.34;5015080;28;20445;-79
2023/02/26 10:13:54;;;;;;;7.50;3.95;;;;;;;-2.62;100.00;95142.31;5006784;28;20100;-77
2023/02/26 10:16:24;;;;;;;10.98;4.43;;;;;;;-2.63;100.00;95142.50;5014826;28;20120;-74
2023/02/26 10:19:13;;;;;;;9.10;4.05;;;;;;;-2.63;100.00;95138.16;5014511;28;20494;-73
2023/02/26 10:21:44;;;;;;;8.23;4.07;;;;;;;-2.82;100.00;95144.84;5007127;28;20042;-78
2023/02/26 10:24:17;;;;;;;8.85;4.53;;;;;;;-2.81;100.00;95148.22;5012780;28;20409;-78
2023/02/26 10:26:49;;;;;;;6.65;3.95;;;;;;;-2.76;100.00;95138.13;5014067;28;20065;-77
2023/02/26 10:29:42;;;;;;;13.35;4.47;;;;;;;-2.64;100.00;95136.56;5014380;28;20042;-78
2023/02/26 10:32:16;;;;;;;8.10;4.45;;;;;;;-2.57;100.00;95128.88;5013506;28;20042;-78
2023/02/26 10:34:55;;;;;;;8.25;4.53;;;;;;;-2.18;100.00;95134.25;5013402;28;20524;-78
2023/02/26 10:37:51;;;;;;;12.63;4.95;;;;;;;-1.94;100.00;95131.06;5014134;28;20042;-79
2023/02/26 10:40:28;;;;;;;8.60;4.40;;;;;;;-1.84;100.00;95135.00;5014479;28;20041;-85
2023/02/26 10:42:59;;;;;;;14.35;4.90;;;;;;;-1.79;100.00;95137.78;5012210;28;20045;-78
2023/02/26 10:45:33;;;;;;;8.70;4.80;;;;;;;-1.95;100.00;95129.47;5013565;28;20038;-78
2023/02/26 10:48:07;;;;;;;8.55;4.15;;;;;;;-1.93;100.00;95129.25;5013979;28;20046;-77
2023/02/26 10:50:34;;;;;;;;;;;;;;;-2.07;100.00;95135.41;5011475;28;20045;-76
2023/02/26 10:52:59;;;;;;;9.13;3.70;;;;;;;-2.09;100.00;95122.72;5015801;28;19975;-79
2023/02/26 10:55:42;;;;;;;8.68;5.20;;;;;;;-2.00;100.00;95111.22;5013121;28;20449;-79
2023/02/26 10:58:15;;;;;;;9.48;4.07;;;;;;;-2.27;100.00;95111.25;5016362;28;20045;-80
2023/02/26 11:00:43;;;;;;;10.77;4.47;;;;;;;-2.11;100.00;95110.03;5025520;28;20030;-80
2023/02/26 11:03:17;;;;;;;12.80;4.65;;;;;;;-2.04;100.00;95104.88;5006122;28;20434;-79
2023/02/26 11:05:43;;;;;;;11.30;4.65;;;;;;;-2.03;100.00;95101.28;5012925;28;20038;-78
2023/02/26 11:08:14;;;;;;;9.13;4.70;;;;;;;-2.15;100.00;95110.66;5010033;28;20046;-78
2023/02/26 11:10:55;;;;;;;9.45;4.82;;;;;;;-2.15;100.00;95097.75;5012149;28;20037;-79
2023/02/26 11:13:27;;;;;;;8.32;3.88;;;;;;;-2.05;100.00;95110.22;5014308;28;20042;-78
2023/02/26 11:15:55;;;;;;;7.93;4.60;;;;;;;-1.92;100.00;95108.44;5011428;28;20564;-78
2023/02/26 11:18:26;;;;;;;10.88;4.60;;;;;;;-2.09;100.00;95107.25;5013560;28;20038;-78
2023/02/26 11:20:55;;;;;;;8.80;4.40;;;;;;;-1.87;100.00;95109.63;5009558;28;20050;-79
2023/02/26 11:23:23;;;;;;;7.20;4.10;;;;;;;-2.21;100.00;95119.16;5010944;28;20410;-77
2023/02/26 11:26:18;;;;;;;7.15;4.18;;;;;;;-2.05;100.00;95133.44;5012572;28;20125;-77
2023/02/26 11:28:52;;;;;;;7.53;3.85;;;;;;;-1.94;100.00;95143.97;4999914;28;20706;-78
2023/02/26 11:31:22;;;;;;;10.60;3.97;;;;;;;-1.80;100.00;95141.34;5010616;28;20045;-73
2023/02/26 11:33:50;;;;;;;8.45;4.30;;;;;;;-1.84;100.00;95140.16;5009761;28;20038;-77
2023/02/26 11:36:21;;;;;;;8.48;4.45;;;;;;;-1.70;100.00;95146.88;5011841;28;20045;-76